createdAt,value
2022-12-15T10:23:50.421Z,73.46
2022-12-15T10:25:12.217Z,74.19
2022-12-15T10:26:19.423Z,76.09
2022-12-15T10:28:09.159Z,75.75
2022-12-15T10:29:40.424Z,75.91
2022-12-15T10:30:55.579Z,75.18
2022-12-15T10:32:05.396Z,74.61
2022-12-15T10:33:15.033Z,74.06
2022-12-15T10:34:44.554Z,71.27
2022-12-15T10:35:49.022Z,69.13
2022-12-15T10:36:53.453Z,69.84
2022-12-15T10:38:05.395Z,70.66
2022-12-15T10:39:11.604Z,70.59
2022-12-15T10:40:20.065Z,69.71
2022-12-15T10:41:26.052Z,69.46
2022-12-15T10:42:29.775Z,70.11
2022-12-15T10:43:39.404Z,68.08
2022-12-15T10:44:50.598Z,65.21
2022-12-15T10:46:07.177Z,65.57
2022-12-15T10:47:23.106Z,66.62
2022-12-15T10:48:26.078Z,65.20
2022-12-15T10:49:29.067Z,65.14
2022-12-15T10:50:34.073Z,66.37
2022-12-15T10:51:44.545Z,65.70
2022-12-15T10:52:49.474Z,65.95
2022-12-15T10:54:03.384Z,65.44
2022-12-15T10:55:31.583Z,65.26
2022-12-15T10:56:45.854Z,65.92
2022-12-15T10:58:02.696Z,64.90
2022-12-15T10:59:24.570Z,64.21
2022-12-15T11:00:30.656Z,64.31
2022-12-15T11:01:35.679Z,65.36
2022-12-15T11:02:39.288Z,64.45
2022-12-15T11:03:43.280Z,64.60
2022-12-15T11:05:15.816Z,65.13
2022-12-15T11:06:22.624Z,63.91
2022-12-15T11:07:37.997Z,64.12
2022-12-15T11:08:42.324Z,63.97
2022-12-15T11:09:48.540Z,63.22
2022-12-15T11:11:15.847Z,62.82
2022-12-15T11:12:40.072Z,63.87
2022-12-15T11:14:04.712Z,64.38
2022-12-15T11:15:23.064Z,63.32
2022-12-15T11:16:26.081Z,63.17
2022-12-15T11:17:40.641Z,64.01
2022-12-15T11:18:58.847Z,63.44
2022-12-15T11:20:17.208Z,62.90
2022-12-15T11:21:35.238Z,63.04
2022-12-15T11:22:53.361Z,62.76
2022-12-15T11:24:11.534Z,63.33
2022-12-15T11:25:29.504Z,63.16
2022-12-15T11:27:00.658Z,62.88
2022-12-15T11:28:09.644Z,62.54
2022-12-15T11:29:57.833Z,63.28
2022-12-15T11:31:20.502Z,59.02
2022-12-15T11:32:28.019Z,63.13
2022-12-15T11:33:31.499Z,63.82
2022-12-15T11:34:47.814Z,62.73
2022-12-15T11:36:09.736Z,61.90
2022-12-15T11:37:18.083Z,62.68
2022-12-15T11:38:48.883Z,59.07
2022-12-15T11:40:18.688Z,60.12
2022-12-15T11:41:39.832Z,59.70
2022-12-15T11:42:51.969Z,55.51
2022-12-15T11:44:21.225Z,56.30
2022-12-15T11:46:01.311Z,56.30
2022-12-15T11:47:19.730Z,56.76
2022-12-15T11:48:33.903Z,58.83
2022-12-15T11:49:47.948Z,58.50
2022-12-15T11:51:13.306Z,58.60
2022-12-15T11:52:34.672Z,59.27
2022-12-15T11:53:56.699Z,60.28
2022-12-15T11:55:13.020Z,62.56
2022-12-15T11:56:26.181Z,58.52
2022-12-15T11:58:04.616Z,59.32
2022-12-15T11:59:16.565Z,60.95
2022-12-15T12:00:23.543Z,60.17
2022-12-15T12:01:57.021Z,60.67
2022-12-15T12:03:41.178Z,56.29
2022-12-15T12:04:47.272Z,60.00
2022-12-15T12:06:08.574Z,59.59
2022-12-15T12:07:18.339Z,58.10
2022-12-15T12:08:40.378Z,60.06
2022-12-15T12:09:59.429Z,57.43
2022-12-15T12:11:17.005Z,60.38
2022-12-15T12:12:30.410Z,59.73
2022-12-15T12:14:08.086Z,58.84
2022-12-15T12:15:30.025Z,58.59
2022-12-15T12:16:39.737Z,59.01
2022-12-15T12:17:50.270Z,61.82
2022-12-15T12:19:04.483Z,62.31
2022-12-15T12:20:36.165Z,62.14
2022-12-15T12:21:44.309Z,60.77
2022-12-15T12:23:04.755Z,61.31
2022-12-15T12:24:21.264Z,61.86
2022-12-15T12:25:25.815Z,62.01
2022-12-15T12:26:28.766Z,61.99
2022-12-15T12:27:48.729Z,61.82
2022-12-15T12:29:00.982Z,61.69
2022-12-15T12:30:25.286Z,61.43
2022-12-15T12:32:00.540Z,60.47
2022-12-15T12:33:14.154Z,60.43
2022-12-15T12:34:29.388Z,59.55
2022-12-15T12:35:44.710Z,59.22
2022-12-15T12:36:49.161Z,58.01
2022-12-15T12:38:03.210Z,58.97
2022-12-15T12:39:16.225Z,59.25
2022-12-15T12:40:38.405Z,59.58
2022-12-15T12:41:50.752Z,60.04
2022-12-15T12:42:56.666Z,60.57
2022-12-15T12:44:11.314Z,59.61
2022-12-15T12:45:15.034Z,59.68
2022-12-15T12:46:27.700Z,60.74
2022-12-15T12:47:35.498Z,61.35
2022-12-15T12:49:07.231Z,60.01
2022-12-15T12:50:26.109Z,59.71
2022-12-15T12:51:38.124Z,58.87
2022-12-15T12:52:55.610Z,59.83
2022-12-15T12:54:00.130Z,58.58
2022-12-15T12:55:23.914Z,58.22
2022-12-15T12:56:43.328Z,58.36
2022-12-15T12:57:47.523Z,59.04
2022-12-15T12:58:53.197Z,59.15
2022-12-15T13:00:13.043Z,58.08
2022-12-15T13:01:33.466Z,58.28
2022-12-15T13:02:39.349Z,57.35
2022-12-15T13:03:43.634Z,56.87
2022-12-15T13:04:50.875Z,57.50
2022-12-15T13:05:54.820Z,58.71
2022-12-15T13:07:02.346Z,58.43
2022-12-15T13:08:05.279Z,58.06
2022-12-15T13:09:17.632Z,58.75
2022-12-15T13:10:22.497Z,58.83
2022-12-15T13:11:53.828Z,58.40
2022-12-15T13:13:19.173Z,56.45
2022-12-15T13:14:31.764Z,56.98
2022-12-15T13:15:42.991Z,57.74
2022-12-15T13:17:08.434Z,57.25
2022-12-15T13:18:20.615Z,56.83
2022-12-15T13:19:58.612Z,58.20
2022-12-15T13:21:34.802Z,58.06
2022-12-15T13:22:39.982Z,56.68
2022-12-15T13:23:43.129Z,57.52
2022-12-15T13:24:50.387Z,57.81
2022-12-15T13:25:56.611Z,57.16
2022-12-15T13:27:19.906Z,56.83
2022-12-15T13:28:35.540Z,56.63
2022-12-15T13:29:55.018Z,56.20
2022-12-15T13:31:20.830Z,55.94
2022-12-15T13:32:31.563Z,56.56
2022-12-15T13:33:50.163Z,57.21
2022-12-15T13:34:53.397Z,56.62
2022-12-15T13:35:57.900Z,57.34
2022-12-15T13:37:02.874Z,57.19
2022-12-15T13:38:17.449Z,57.63
2022-12-15T13:39:20.397Z,58.43
2022-12-15T13:40:23.770Z,58.78
2022-12-15T13:41:26.859Z,58.60
2022-12-15T13:43:57.807Z,58.02
2022-12-15T13:45:24.595Z,58.52
2022-12-15T13:46:33.427Z,57.98
2022-12-15T13:47:37.979Z,59.09
2022-12-15T13:48:45.720Z,60.34
2022-12-15T13:50:02.093Z,60.17
2022-12-15T13:51:18.017Z,59.98
2022-12-15T13:54:25.221Z,59.63
2022-12-15T13:55:35.784Z,61.16
2022-12-15T13:56:41.913Z,62.05
2022-12-15T13:58:02.974Z,62.79
2022-12-15T13:59:16.410Z,64.38
2022-12-15T14:00:20.321Z,64.05
2022-12-15T14:01:33.231Z,63.20
2022-12-15T14:02:37.440Z,62.54
2022-12-15T14:03:55.969Z,62.17
2022-12-15T14:05:17.528Z,62.13
2022-12-15T14:06:20.889Z,62.03
2022-12-15T14:07:23.925Z,61.77
2022-12-15T14:08:30.228Z,61.49
2022-12-15T14:09:41.218Z,61.09
2022-12-15T14:10:51.299Z,60.70
2022-12-15T14:11:54.647Z,60.20
2022-12-15T14:13:01.551Z,60.16
2022-12-15T14:14:05.039Z,59.89
2022-12-15T14:15:20.142Z,59.78
2022-12-15T14:16:24.590Z,59.39
2022-12-15T14:17:28.251Z,59.18
2022-12-15T14:18:36.226Z,58.59
2022-12-15T14:19:44.976Z,57.94
2022-12-15T14:20:48.531Z,58.23
2022-12-15T14:21:54.952Z,58.90
2022-12-15T14:22:59.007Z,59.53
2022-12-15T14:24:37.004Z,59.98
2022-12-15T14:25:31.757Z,60.16
2022-12-15T14:26:34.931Z,60.79
2022-12-15T14:27:37.968Z,61.23
2022-12-15T14:28:46.642Z,61.89
2022-12-15T14:30:13.745Z,62.23
2022-12-15T14:31:21.348Z,63.84
2022-12-15T14:32:25.134Z,64.11
2022-12-15T14:33:29.902Z,63.96
2022-12-15T14:34:38.884Z,63.58
2022-12-15T14:35:44.131Z,62.80
2022-12-15T14:36:56.111Z,62.40
2022-12-15T14:38:02.742Z,62.39
2022-12-15T14:39:21.238Z,62.34
2022-12-15T14:40:28.960Z,62.39
2022-12-15T14:41:37.283Z,62.44
2022-12-15T14:42:41.420Z,62.61
2022-12-15T14:43:44.627Z,62.17
2022-12-15T14:45:21.134Z,62.06
2022-12-15T14:46:27.208Z,62.23
2022-12-15T14:47:33.928Z,62.13
2022-12-15T14:48:41.703Z,61.64
2022-12-15T14:49:46.438Z,61.98
2022-12-15T14:50:51.243Z,62.13
2022-12-15T14:52:00.704Z,62.30
2022-12-15T14:53:13.950Z,62.25
2022-12-15T14:54:59.819Z,62.42
2022-12-15T14:56:27.597Z,62.74
2022-12-15T14:57:45.471Z,62.37
2022-12-15T14:59:18.917Z,62.48
2022-12-15T15:00:50.277Z,62.43
2022-12-15T15:01:59.715Z,62.66
2022-12-15T15:03:05.499Z,58.59
2022-12-15T15:03:18.761Z,62.85
2022-12-15T15:04:31.359Z,62.84
2022-12-15T15:05:34.937Z,62.97
2022-12-15T15:06:40.185Z,62.98
2022-12-15T15:07:45.599Z,62.82
2022-12-15T15:08:53.148Z,62.99
2022-12-15T15:09:56.579Z,62.84
2022-12-15T15:11:29.706Z,63.00
2022-12-15T15:12:46.210Z,63.13
2022-12-15T15:13:56.163Z,62.76
2022-12-15T15:15:04.832Z,63.02
2022-12-15T15:16:16.373Z,62.93
2022-12-15T15:17:25.725Z,63.50
2022-12-15T15:18:29.837Z,63.63
2022-12-15T15:19:39.690Z,62.94
2022-12-15T15:20:54.903Z,63.05
2022-12-15T15:22:01.103Z,63.11
2022-12-15T15:23:04.093Z,63.70
2022-12-15T15:24:10.788Z,63.81
2022-12-15T15:25:29.341Z,64.16
2022-12-15T15:26:33.383Z,64.30
2022-12-15T15:27:39.930Z,64.31
2022-12-15T15:28:45.027Z,64.29
2022-12-15T15:29:49.053Z,64.33
2022-12-15T15:30:56.081Z,64.29
2022-12-15T15:32:18.176Z,64.44
2022-12-15T15:33:22.430Z,64.48
2022-12-15T15:34:26.091Z,64.30
2022-12-15T15:35:31.632Z,64.57
2022-12-15T15:36:37.718Z,64.63
2022-12-15T15:37:40.761Z,64.54
2022-12-15T15:38:46.636Z,64.89
2022-12-15T15:39:54.510Z,64.90
2022-12-15T15:41:22.957Z,65.16
2022-12-15T15:42:32.224Z,65.28
2022-12-15T15:43:36.326Z,65.32
2022-12-15T15:44:40.438Z,65.54
2022-12-15T15:45:43.821Z,65.46
2022-12-15T15:46:50.183Z,65.47
2022-12-15T15:47:56.060Z,65.26
2022-12-15T15:49:07.345Z,65.38
2022-12-15T15:50:14.447Z,65.67
2022-12-15T15:51:18.616Z,65.50
2022-12-15T15:52:22.962Z,66.05
2022-12-15T15:53:27.944Z,66.13
2022-12-15T15:54:37.915Z,66.05
2022-12-15T15:55:42.562Z,66.13
2022-12-15T15:56:45.637Z,65.34
2022-12-15T15:57:48.809Z,65.21
2022-12-15T15:58:51.942Z,65.07
2022-12-15T15:59:55.360Z,65.09
2022-12-15T16:00:58.598Z,65.39
2022-12-15T16:02:02.344Z,65.27
2022-12-15T16:03:06.638Z,65.53
2022-12-15T16:04:12.340Z,65.34
2022-12-15T16:05:15.578Z,65.22
2022-12-15T16:06:21.072Z,65.87
2022-12-15T16:07:28.001Z,65.77
2022-12-15T16:08:36.510Z,65.56
2022-12-15T16:09:39.914Z,65.71
2022-12-15T16:10:48.681Z,65.92
2022-12-15T16:11:51.711Z,66.23
2022-12-15T16:12:57.542Z,66.43
2022-12-15T16:14:01.802Z,66.11
2022-12-15T16:15:20.394Z,66.45
2022-12-15T16:16:28.353Z,66.67
2022-12-15T16:17:31.353Z,66.26
2022-12-15T16:18:35.344Z,66.59
2022-12-15T16:19:39.917Z,66.69
2022-12-15T16:20:46.482Z,66.70
2022-12-15T16:21:51.009Z,66.61
2022-12-15T16:22:58.405Z,66.97
2022-12-15T16:24:10.005Z,66.91
2022-12-15T16:25:17.429Z,67.02
2022-12-15T16:26:32.393Z,67.08
2022-12-15T16:27:35.479Z,67.23
2022-12-15T16:28:38.568Z,67.39
2022-12-15T16:29:42.139Z,67.26
2022-12-15T16:30:45.733Z,67.22
2022-12-15T16:31:49.090Z,67.40
2022-12-15T16:32:53.448Z,67.37
2022-12-15T16:33:59.032Z,67.49
2022-12-15T16:35:02.147Z,67.00
2022-12-15T16:36:14.010Z,67.34
2022-12-15T16:37:39.681Z,67.58
2022-12-15T16:38:43.350Z,67.76
2022-12-15T16:39:46.341Z,66.99
2022-12-15T16:40:49.387Z,66.67
2022-12-15T16:41:55.670Z,67.00
2022-12-15T16:43:01.117Z,66.77
2022-12-15T16:44:04.313Z,66.91
2022-12-15T16:45:18.627Z,67.10
2022-12-15T16:46:21.874Z,67.63
2022-12-15T16:47:24.986Z,67.42
2022-12-15T16:48:28.366Z,67.70
2022-12-15T16:49:38.099Z,67.83
2022-12-15T16:50:55.361Z,67.79
2022-12-15T16:51:58.927Z,67.90
2022-12-15T16:53:04.154Z,67.78
2022-12-15T16:54:12.898Z,67.86
2022-12-15T16:55:28.277Z,67.64
2022-12-15T16:56:31.387Z,67.57
2022-12-15T16:57:35.177Z,67.54
2022-12-15T16:58:38.223Z,67.32
2022-12-15T16:59:41.430Z,66.83
2022-12-15T17:00:45.377Z,66.75
2022-12-15T17:01:48.535Z,66.95
2022-12-15T17:02:53.401Z,66.88
2022-12-15T17:03:57.154Z,66.66
2022-12-15T17:05:00.314Z,66.72
2022-12-15T17:06:06.700Z,66.77
2022-12-15T17:07:19.558Z,66.80
2022-12-15T17:08:43.841Z,67.12
2022-12-15T17:09:47.068Z,66.73
2022-12-15T17:10:51.064Z,67.02
2022-12-15T17:11:54.142Z,66.86
2022-12-15T17:13:06.730Z,66.93
2022-12-15T17:14:10.316Z,67.33
2022-12-15T17:15:23.353Z,67.39
2022-12-15T17:16:28.188Z,67.17
2022-12-15T17:17:31.595Z,67.09
2022-12-15T17:18:34.714Z,67.20
2022-12-15T17:19:37.874Z,67.21
2022-12-15T17:20:42.399Z,67.16
2022-12-15T17:21:51.834Z,66.99
2022-12-15T17:23:07.773Z,67.03
2022-12-15T17:24:15.942Z,67.04
2022-12-15T17:25:53.360Z,66.76
2022-12-15T17:26:47.976Z,66.78
2022-12-15T17:27:52.856Z,67.02
2022-12-15T17:28:59.823Z,66.95
2022-12-15T17:30:03.029Z,67.08
2022-12-15T17:31:09.849Z,67.16
2022-12-15T17:32:13.330Z,67.28
2022-12-15T17:33:25.130Z,67.19
2022-12-15T17:34:30.427Z,67.25
2022-12-15T17:35:33.753Z,67.23
2022-12-15T17:36:37.858Z,67.41
2022-12-15T17:37:41.862Z,66.80
2022-12-15T17:38:45.052Z,66.98
2022-12-15T17:39:51.588Z,66.94
2022-12-15T17:40:56.542Z,67.37
2022-12-15T17:42:01.433Z,67.49
2022-12-15T17:43:16.200Z,67.24
2022-12-15T17:44:34.371Z,67.12
2022-12-15T17:45:38.364Z,67.48
2022-12-15T17:46:41.418Z,67.26
2022-12-15T17:47:45.356Z,67.37
2022-12-15T17:48:48.422Z,67.61
2022-12-15T17:49:51.425Z,67.51
2022-12-15T17:50:54.552Z,67.53
2022-12-15T17:51:59.890Z,67.25
2022-12-15T17:53:05.621Z,67.26
2022-12-15T17:54:13.040Z,67.48
2022-12-15T17:55:33.327Z,67.52
2022-12-15T17:56:38.260Z,67.78
2022-12-15T17:57:41.399Z,67.55
2022-12-15T17:58:44.561Z,67.40
2022-12-15T17:59:47.720Z,67.23
2022-12-15T18:00:56.587Z,67.61
2022-12-15T18:01:59.778Z,67.95
2022-12-15T18:03:04.748Z,67.82
2022-12-15T18:04:09.644Z,67.55
2022-12-15T18:05:13.373Z,67.48
2022-12-15T18:06:17.612Z,67.29
2022-12-15T18:07:22.783Z,67.84
2022-12-15T18:08:27.818Z,67.91
2022-12-15T18:09:31.007Z,67.99
2022-12-15T18:10:38.156Z,68.12
2022-12-15T18:11:43.248Z,67.96
2022-12-15T18:12:46.357Z,67.63
2022-12-15T18:13:49.376Z,67.69
2022-12-15T18:14:53.589Z,67.74
2022-12-15T18:15:57.206Z,67.63
2022-12-15T18:17:00.227Z,67.82
2022-12-15T18:18:03.347Z,68.04
2022-12-15T18:19:06.510Z,68.28
2022-12-15T18:20:10.177Z,68.38
2022-12-15T18:21:15.527Z,68.42
2022-12-15T18:22:24.807Z,68.56
2022-12-15T18:23:32.393Z,68.46
2022-12-15T18:24:36.176Z,68.27
2022-12-15T18:25:40.160Z,68.33
2022-12-15T18:26:43.381Z,68.14
2022-12-15T18:27:47.211Z,67.94
2022-12-15T18:28:50.301Z,67.77
2022-12-15T18:29:53.426Z,67.32
2022-12-15T18:31:13.827Z,67.17
2022-12-15T18:32:18.671Z,67.19
2022-12-15T18:33:23.488Z,67.19
2022-12-15T18:34:26.514Z,67.12
2022-12-15T18:35:39.938Z,67.16
2022-12-15T18:36:43.410Z,67.30
2022-12-15T18:37:47.648Z,67.36
2022-12-15T18:38:50.922Z,67.37
2022-12-15T18:39:59.501Z,67.35
2022-12-15T18:41:13.254Z,67.45
2022-12-15T18:42:20.443Z,67.51
2022-12-15T18:43:25.984Z,67.63
2022-12-15T18:44:32.126Z,67.58
2022-12-15T18:45:35.167Z,67.52
2022-12-15T18:46:40.933Z,67.49
2022-12-15T18:47:46.987Z,67.38
2022-12-15T18:48:50.216Z,67.27
2022-12-15T18:49:53.170Z,67.21
2022-12-15T18:50:58.119Z,67.28
2022-12-15T18:52:01.146Z,67.26
2022-12-15T18:53:04.185Z,67.46
2022-12-15T18:54:15.301Z,67.48
2022-12-15T18:55:21.984Z,67.48
2022-12-15T18:56:25.250Z,67.66
2022-12-15T18:57:36.324Z,67.71
2022-12-15T18:58:40.163Z,68.00
2022-12-15T18:59:43.590Z,68.06
2022-12-15T19:00:47.527Z,67.98
2022-12-15T19:01:50.774Z,68.06
2022-12-15T19:02:57.303Z,68.11
2022-12-15T19:04:00.472Z,68.06
2022-12-15T19:05:03.820Z,68.24
2022-12-15T19:06:34.980Z,68.22
2022-12-15T19:07:38.159Z,68.12
2022-12-15T19:08:41.496Z,67.91
2022-12-15T19:09:44.644Z,68.20
2022-12-15T19:11:00.093Z,68.40
2022-12-15T19:12:18.365Z,68.22
2022-12-15T19:13:32.754Z,68.28
2022-12-15T19:14:42.935Z,68.46
2022-12-15T19:15:46.952Z,68.55
2022-12-15T19:17:09.146Z,68.73
2022-12-15T19:18:39.067Z,68.84
2022-12-15T19:20:00.774Z,68.91
2022-12-15T19:21:44.181Z,68.65
2022-12-15T19:22:48.838Z,69.03
2022-12-15T19:23:51.961Z,69.02
2022-12-15T19:24:55.113Z,68.79
2022-12-15T19:25:58.611Z,68.53
2022-12-15T19:27:01.769Z,68.63
2022-12-15T19:28:12.562Z,68.41
2022-12-15T19:29:19.122Z,69.25
2022-12-15T19:30:22.230Z,68.89
2022-12-15T19:31:25.330Z,69.56
2022-12-15T19:32:28.691Z,69.55
2022-12-15T19:33:32.342Z,68.90
2022-12-15T19:34:35.794Z,69.27
2022-12-15T19:35:41.860Z,69.62
2022-12-15T19:36:44.914Z,69.24
2022-12-15T19:37:50.148Z,69.31
2022-12-15T19:38:55.838Z,69.38
2022-12-15T19:40:01.522Z,70.00
2022-12-15T19:41:04.639Z,69.70
2022-12-15T19:42:19.669Z,70.03
2022-12-15T19:43:24.305Z,70.92
2022-12-15T19:44:27.530Z,70.25
2022-12-15T19:45:32.314Z,69.73
2022-12-15T19:46:35.948Z,69.79
2022-12-15T19:47:39.428Z,70.25
2022-12-15T19:48:43.484Z,70.55
2022-12-15T19:49:46.868Z,70.04
2022-12-15T19:50:51.905Z,69.89
2022-12-15T19:51:55.141Z,70.02
2022-12-15T19:53:01.534Z,70.01
2022-12-15T19:54:04.921Z,70.05
2022-12-15T19:55:16.482Z,70.47
2022-12-15T19:56:21.904Z,70.19
2022-12-15T19:57:25.029Z,69.92
2022-12-15T19:58:31.457Z,70.23
2022-12-15T19:59:34.472Z,70.32
2022-12-15T20:00:37.826Z,70.31
2022-12-15T20:01:41.018Z,70.28
2022-12-15T20:02:45.340Z,69.91
2022-12-15T20:03:51.138Z,70.02
2022-12-15T20:04:54.197Z,70.30
2022-12-15T20:05:58.946Z,70.25
2022-12-15T20:07:04.108Z,70.11
2022-12-15T20:08:07.211Z,70.28
2022-12-15T20:09:18.469Z,70.05
2022-12-15T20:10:32.159Z,70.31
2022-12-15T20:11:35.820Z,70.08
2022-12-15T20:12:38.904Z,70.32
2022-12-15T20:13:41.954Z,70.42
2022-12-15T20:14:47.148Z,70.29
2022-12-15T20:15:51.675Z,70.40
2022-12-15T20:16:55.172Z,70.23
2022-12-15T20:17:58.253Z,69.97
2022-12-15T20:19:01.505Z,70.03
2022-12-15T20:20:05.347Z,70.08
2022-12-15T20:21:09.954Z,70.09
2022-12-15T20:22:16.117Z,70.14
2022-12-15T20:23:27.699Z,70.40
2022-12-15T20:24:32.497Z,70.56
2022-12-15T20:25:37.548Z,70.22
2022-12-15T20:26:42.611Z,70.43
2022-12-15T20:27:47.670Z,70.53
2022-12-15T20:28:52.197Z,70.59
2022-12-15T20:29:55.165Z,70.53
2022-12-15T20:30:59.051Z,70.44
2022-12-15T20:32:02.202Z,70.37
2022-12-15T20:33:06.284Z,70.39
2022-12-15T20:34:09.234Z,70.57
2022-12-15T20:35:19.619Z,70.51
2022-12-15T20:36:26.369Z,70.48
2022-12-15T20:37:31.100Z,70.35
2022-12-15T20:38:34.343Z,70.42
2022-12-15T20:39:38.032Z,70.42
2022-12-15T20:40:40.949Z,70.59
2022-12-15T20:41:43.930Z,70.38
2022-12-15T20:42:50.162Z,70.41
2022-12-15T20:43:56.112Z,70.44
2022-12-15T20:44:59.149Z,70.56
2022-12-15T20:46:25.174Z,70.62
2022-12-15T20:47:28.530Z,70.77
2022-12-15T20:48:34.779Z,70.71
2022-12-15T20:49:38.167Z,71.01
2022-12-15T20:50:46.861Z,70.79
2022-12-15T20:51:50.932Z,70.99
2022-12-15T20:52:54.924Z,70.96
2022-12-15T20:54:00.727Z,70.97
2022-12-15T20:55:06.932Z,71.29
2022-12-15T20:56:10.026Z,70.78
2022-12-15T20:57:13.131Z,71.05
2022-12-15T20:58:17.116Z,71.20
2022-12-15T20:59:20.109Z,71.32
2022-12-15T21:00:23.282Z,71.43
2022-12-15T21:01:31.766Z,71.58
2022-12-15T21:02:35.021Z,71.65
2022-12-15T21:03:38.696Z,71.85
2022-12-15T21:04:42.294Z,71.22
2022-12-15T21:05:46.037Z,71.21
2022-12-15T21:06:54.454Z,71.61
2022-12-15T21:07:57.985Z,71.76
2022-12-15T21:09:01.123Z,71.85
2022-12-15T21:10:04.814Z,71.91
2022-12-15T21:11:18.481Z,71.71
2022-12-15T21:12:25.284Z,72.07
2022-12-15T21:13:33.161Z,71.50
2022-12-15T21:14:36.652Z,71.97
2022-12-15T21:15:39.793Z,71.71
2022-12-15T21:16:44.895Z,72.42
2022-12-15T21:17:58.020Z,72.67
2022-12-15T21:19:22.996Z,72.58
2022-12-15T21:20:26.359Z,72.28
2022-12-15T21:21:38.316Z,72.51
2022-12-15T21:22:41.918Z,72.48
2022-12-15T21:23:45.747Z,72.46
2022-12-15T21:24:54.214Z,72.29
2022-12-15T21:26:01.427Z,72.35
2022-12-15T21:27:04.504Z,72.64
2022-12-15T21:28:11.867Z,72.76
2022-12-15T21:29:18.089Z,72.70
2022-12-15T21:30:23.115Z,72.84
2022-12-15T21:31:26.737Z,72.45
2022-12-15T21:32:30.137Z,72.61
2022-12-15T21:33:33.373Z,72.21
2022-12-15T21:34:37.175Z,71.82
2022-12-15T21:35:41.531Z,72.21
2022-12-15T21:36:50.043Z,72.23
2022-12-15T21:37:54.934Z,71.60
2022-12-15T21:38:59.360Z,71.68
2022-12-15T21:40:02.570Z,72.11
2022-12-15T21:41:11.579Z,72.40
2022-12-15T21:42:16.762Z,72.29
2022-12-15T21:43:24.282Z,72.69
2022-12-15T21:44:27.511Z,72.28
2022-12-15T21:45:30.546Z,72.05
2022-12-15T21:46:33.561Z,72.32
2022-12-15T21:47:55.222Z,72.67
2022-12-15T21:49:20.596Z,72.83
2022-12-15T21:50:24.099Z,72.82
2022-12-15T21:51:30.101Z,72.40
2022-12-15T21:52:33.128Z,72.56
2022-12-15T21:53:36.232Z,72.61
2022-12-15T21:54:39.192Z,72.94
2022-12-15T21:55:44.572Z,73.22
2022-12-15T21:56:48.632Z,73.39
2022-12-15T21:57:52.429Z,73.77
2022-12-15T21:58:56.646Z,73.66
2022-12-15T21:59:59.607Z,73.93
2022-12-15T22:01:02.808Z,73.95
2022-12-15T22:02:24.258Z,74.07
2022-12-15T22:03:27.473Z,73.43
2022-12-15T22:04:34.211Z,73.22
2022-12-15T22:05:37.195Z,72.94
2022-12-15T22:06:40.556Z,73.07
2022-12-15T22:07:43.809Z,73.56
2022-12-15T22:08:46.870Z,73.11
2022-12-15T22:09:49.974Z,73.23
2022-12-15T22:10:54.895Z,73.49
2022-12-15T22:11:58.307Z,73.99
2022-12-15T22:13:03.097Z,74.27
2022-12-15T22:14:34.217Z,73.88
2022-12-15T22:15:37.341Z,74.22
2022-12-15T22:16:40.392Z,74.38
2022-12-15T22:17:44.388Z,74.17
2022-12-15T22:18:54.826Z,74.03
2022-12-15T22:19:58.298Z,74.42
2022-12-15T22:21:01.273Z,74.78
2022-12-15T22:22:04.229Z,74.44
2022-12-15T22:23:07.464Z,73.95
2022-12-15T22:24:11.403Z,73.84
2022-12-15T22:25:24.582Z,74.06
2022-12-15T22:26:30.012Z,73.86
2022-12-15T22:27:34.523Z,73.50
2022-12-15T22:28:37.832Z,73.58
2022-12-15T22:29:41.000Z,73.23
2022-12-15T22:30:44.088Z,73.07
2022-12-15T22:31:50.744Z,73.00
2022-12-15T22:32:55.184Z,73.09
2022-12-15T22:33:58.723Z,73.01
2022-12-15T22:35:01.886Z,72.95
2022-12-15T22:36:05.024Z,72.57
2022-12-15T22:37:08.258Z,72.55
2022-12-15T22:38:11.323Z,72.43
2022-12-15T22:39:15.161Z,72.50
2022-12-15T22:40:18.314Z,72.55
2022-12-15T22:41:23.812Z,72.63
2022-12-15T22:42:26.779Z,72.60
2022-12-15T22:43:37.830Z,72.44
2022-12-15T22:44:41.006Z,72.48
2022-12-15T22:45:44.069Z,72.31
2022-12-15T22:46:48.582Z,72.41
2022-12-15T22:47:53.542Z,72.62
2022-12-15T22:48:58.502Z,72.57
2022-12-15T22:50:02.138Z,72.51
2022-12-15T22:51:06.303Z,72.52
2022-12-15T22:52:18.839Z,72.55
2022-12-15T22:53:23.003Z,72.43
2022-12-15T22:54:29.355Z,72.46
2022-12-15T22:55:32.502Z,72.29
2022-12-15T22:56:39.894Z,72.29
2022-12-15T22:57:52.249Z,72.35
2022-12-15T22:59:01.109Z,72.32
2022-12-15T23:00:08.057Z,72.22
2022-12-15T23:01:12.137Z,72.21
2022-12-15T23:02:15.143Z,72.31
2022-12-15T23:03:19.285Z,72.29
2022-12-15T23:04:24.094Z,72.26
2022-12-15T23:05:27.261Z,72.37
2022-12-15T23:06:30.505Z,72.54
2022-12-15T23:07:39.781Z,72.33
2022-12-15T23:08:42.739Z,72.31
2022-12-15T23:09:45.654Z,72.31
2022-12-15T23:11:07.701Z,72.35
2022-12-15T23:12:12.092Z,72.36
2022-12-15T23:13:15.084Z,72.33
2022-12-15T23:14:39.352Z,72.50
2022-12-15T23:16:01.155Z,72.41
2022-12-15T23:17:04.177Z,72.34
2022-12-15T23:18:07.558Z,72.24
2022-12-15T23:19:24.114Z,72.18
2022-12-15T23:20:27.254Z,72.34
2022-12-15T23:21:30.728Z,72.37
2022-12-15T23:22:33.692Z,72.21
2022-12-15T23:23:37.895Z,72.24
2022-12-15T23:24:41.109Z,72.18
2022-12-15T23:25:45.145Z,72.27
2022-12-15T23:26:48.174Z,72.22
2022-12-15T23:27:51.604Z,72.25
2022-12-15T23:28:55.419Z,72.06
2022-12-15T23:29:58.657Z,71.97
2022-12-15T23:31:01.893Z,71.94
2022-12-15T23:32:05.132Z,72.20
2022-12-15T23:33:08.162Z,72.18
2022-12-15T23:34:11.707Z,72.08
2022-12-15T23:35:14.765Z,72.16
2022-12-15T23:36:17.824Z,72.19
2022-12-15T23:37:20.736Z,72.41
2022-12-15T23:38:25.307Z,72.47
2022-12-15T23:39:28.332Z,72.23
